الصفحة الرئيسية
METAR-TAF:

METAR-TAF

مطار :

كورومبا, ماتو غروسو دو سول, البرازيل

دائرة عرض: 19-05S, خط طول: 057-30W, ارتفاع: 130 متر

مراقبة الطقس الحالي

تاريخ ووقت الإصدار 2ساعات و 6 دقيقة قبل الساعة 21:00UTC
ريح 7 عقدة من الشمال الشرقي
درجة الحرارة 32°درجة مئوية
الرطوبة 46%
ضغط 1007 hPa
الرؤية: 3000 متر
غيوم قليلة على ارتفاع 4600 قدم

METAR: SBCR 172100Z 05007KT 9000 3000E FEW046 32/19 Q1007

زمن: 19:06 (23:06 UTC)

توقعات

تاريخ ووقت الإصدار 8ساعات و 6 دقيقة قبل الساعة 15:00UTC
التوقعات صالحة من17 الساعة 18 UTC إلى 18 الساعة 18 UTC
ريح 8 عقدة من الشمال
الرؤية: 7000 متر
أصبح
من 17 الساعة 19 UTC إلى 17 الساعة 21 UTC
ريح 3 عقدة من الشمال/الشمال الشرقي
أصبح
من 18 الساعة 08 UTC إلى 18 الساعة 10 UTC
الرؤية: 4000 متر
دخان
أصبح
من 18 الساعة 14 UTC إلى 18 الساعة 16 UTC
ريح 10 عقدة من الشمال
الرؤية: 7000 متر
غيوم قليلة على ارتفاع 4500 قدم

TAF: SBCR 171500Z 1718/1818 35008KT 7000 NSC TN22/1810Z TX35/1818Z BECMG 1719/1721 02003KT BECMG 1808/1810 4000 FU BECMG 1814/1816 35010KT 7000 NSW FEW045 RMK PGN

أرصاد الطقس والتوقعات من أكثر من 4000 مطار (تقارير الطقس للمطار METAR والتنبؤ بالطقس بالمطارTAF).

المحطات المتاحة هي النقط الصفراء والحمراء على الخريطة.

حرك المؤشر فوق النقطة لمعرفة اسم المحطة.

ثم انقر لمعرفة أرصاد وتوقعات الطقس.

لتغيير الخارطة: اضغط على الأزرار الخضراء مع رمز الصليب الأسود للتكبير. على الزر الأخضر مع شرطة للتصغير، أو على الأسهم الخضراء للخرائط المجاورة.


METAR-TAF: